sensor_id;sensor_type;location;lat;lon;timestamp;temperature;humidity
8896;DHT22;4484;48.928;10.066;2022-10-26T00:03:38;9.80;99.90
8896;DHT22;4484;48.928;10.066;2022-10-26T00:06:14;9.80;99.90
8896;DHT22;4484;48.928;10.066;2022-10-26T00:08:41;9.90;99.90
8896;DHT22;4484;48.928;10.066;2022-10-26T00:11:09;9.90;99.90
8896;DHT22;4484;48.928;10.066;2022-10-26T00:13:37;9.90;99.90
8896;DHT22;4484;48.928;10.066;2022-10-26T00:16:16;10.00;99.90
8896;DHT22;4484;48.928;10.066;2022-10-26T00:18:43;10.00;99.90
8896;DHT22;4484;48.928;10.066;2022-10-26T00:21:10;10.00;99.90
8896;DHT22;4484;48.928;10.066;2022-10-26T00:23:37;10.00;99.90
8896;DHT22;4484;48.928;10.066;2022-10-26T00:26:05;10.10;99.90
8896;DHT22;4484;48.928;10.066;2022-10-26T00:28:32;10.00;99.90
8896;DHT22;4484;48.928;10.066;2022-10-26T00:31:00;10.10;99.90
8896;DHT22;4484;48.928;10.066;2022-10-26T00:33:27;10.00;99.90
8896;DHT22;4484;48.928;10.066;2022-10-26T00:35:55;10.10;99.90
8896;DHT22;4484;48.928;10.066;2022-10-26T00:38:22;10.10;99.90
8896;DHT22;4484;48.928;10.066;2022-10-26T00:40:49;10.20;99.90
8896;DHT22;4484;48.928;10.066;2022-10-26T00:45:53;10.40;99.90
8896;DHT22;4484;48.928;10.066;2022-10-26T00:48:25;10.50;99.90
8896;DHT22;4484;48.928;10.066;2022-10-26T00:50:53;10.50;99.90
8896;DHT22;4484;48.928;10.066;2022-10-26T00:53:22;10.60;99.90
8896;DHT22;4484;48.928;10.066;2022-10-26T00:55:50;10.70;99.90
8896;DHT22;4484;48.928;10.066;2022-10-26T00:58:19;10.70;99.90
8896;DHT22;4484;48.928;10.066;2022-10-26T01:00:47;10.90;99.90
8896;DHT22;4484;48.928;10.066;2022-10-26T01:03:16;10.90;99.90
8896;DHT22;4484;48.928;10.066;2022-10-26T01:05:45;11.00;99.90
8896;DHT22;4484;48.928;10.066;2022-10-26T01:08:15;11.00;99.90
8896;DHT22;4484;48.928;10.066;2022-10-26T01:10:43;11.00;99.90
8896;DHT22;4484;48.928;10.066;2022-10-26T01:13:10;11.10;99.90
8896;DHT22;4484;48.928;10.066;2022-10-26T01:16:02;11.10;99.90
8896;DHT22;4484;48.928;10.066;2022-10-26T01:32:13;11.00;99.90
8896;DHT22;4484;48.928;10.066;2022-10-26T01:34:55;11.00;99.90
8896;DHT22;4484;48.928;10.066;2022-10-26T01:37:29;11.00;99.90
8896;DHT22;4484;48.928;10.066;2022-10-26T01:40:10;11.00;99.90
8896;DHT22;4484;48.928;10.066;2022-10-26T01:42:45;11.00;99.90
8896;DHT22;4484;48.928;10.066;2022-10-26T01:45:14;11.00;99.90
8896;DHT22;4484;48.928;10.066;2022-10-26T01:47:42;11.00;99.90
8896;DHT22;4484;48.928;10.066;2022-10-26T01:50:11;11.00;99.90
8896;DHT22;4484;48.928;10.066;2022-10-26T01:52:47;11.00;99.90
8896;DHT22;4484;48.928;10.066;2022-10-26T02:00:52;11.00;99.90
8896;DHT22;4484;48.928;10.066;2022-10-26T02:09:23;11.00;99.90
8896;DHT22;4484;48.928;10.066;2022-10-26T02:11:55;11.00;99.90
8896;DHT22;4484;48.928;10.066;2022-10-26T02:14:50;11.00;99.90
8896;DHT22;4484;48.928;10.066;2022-10-26T02:17:45;11.10;99.90
8896;DHT22;4484;48.928;10.066;2022-10-26T02:20:27;11.10;99.90
8896;DHT22;4484;48.928;10.066;2022-10-26T02:23:01;11.10;99.90
8896;DHT22;4484;48.928;10.066;2022-10-26T02:25:32;11.10;99.90
8896;DHT22;4484;48.928;10.066;2022-10-26T02:28:03;11.10;99.90
8896;DHT22;4484;48.928;10.066;2022-10-26T02:30:32;11.20;99.90
8896;DHT22;4484;48.928;10.066;2022-10-26T02:33:02;11.20;99.90
8896;DHT22;4484;48.928;10.066;2022-10-26T02:35:31;11.20;99.90
8896;DHT22;4484;48.928;10.066;2022-10-26T02:38:03;11.20;99.90
8896;DHT22;4484;48.928;10.066;2022-10-26T02:40:31;11.20;99.90
8896;DHT22;4484;48.928;10.066;2022-10-26T02:43:03;11.20;99.90
8896;DHT22;4484;48.928;10.066;2022-10-26T02:45:35;11.20;99.90
8896;DHT22;4484;48.928;10.066;2022-10-26T02:48:05;11.20;99.90
8896;DHT22;4484;48.928;10.066;2022-10-26T02:50:42;11.20;99.90
8896;DHT22;4484;48.928;10.066;2022-10-26T02:53:24;11.20;99.90
8896;DHT22;4484;48.928;10.066;2022-10-26T02:55:53;11.20;99.90
8896;DHT22;4484;48.928;10.066;2022-10-26T02:58:27;11.20;99.90
8896;DHT22;4484;48.928;10.066;2022-10-26T03:00:55;11.20;99.90
8896;DHT22;4484;48.928;10.066;2022-10-26T03:03:22;11.20;99.90
8896;DHT22;4484;48.928;10.066;2022-10-26T03:05:49;11.20;99.90
8896;DHT22;4484;48.928;10.066;2022-10-26T03:08:16;11.10;99.90
8896;DHT22;4484;48.928;10.066;2022-10-26T03:10:44;11.20;99.90
8896;DHT22;4484;48.928;10.066;2022-10-26T03:13:12;11.10;99.90
8896;DHT22;4484;48.928;10.066;2022-10-26T03:15:39;11.20;99.90
8896;DHT22;4484;48.928;10.066;2022-10-26T03:18:07;11.10;99.90
8896;DHT22;4484;48.928;10.066;2022-10-26T03:20:34;11.10;99.90
8896;DHT22;4484;48.928;10.066;2022-10-26T03:23:01;11.10;99.90
8896;DHT22;4484;48.928;10.066;2022-10-26T03:25:28;11.10;99.90
8896;DHT22;4484;48.928;10.066;2022-10-26T03:27:59;11.10;99.90
8896;DHT22;4484;48.928;10.066;2022-10-26T03:30:28;11.10;99.90
8896;DHT22;4484;48.928;10.066;2022-10-26T03:32:55;11.10;99.90
8896;DHT22;4484;48.928;10.066;2022-10-26T03:35:23;11.10;99.90
8896;DHT22;4484;48.928;10.066;2022-10-26T03:37:49;11.10;99.90
8896;DHT22;4484;48.928;10.066;2022-10-26T03:40:17;11.10;99.90
8896;DHT22;4484;48.928;10.066;2022-10-26T03:42:44;11.10;99.90
8896;DHT22;4484;48.928;10.066;2022-10-26T03:45:11;11.10;99.90
8896;DHT22;4484;48.928;10.066;2022-10-26T03:47:48;11.10;99.90
8896;DHT22;4484;48.928;10.066;2022-10-26T03:50:17;11.10;99.90
8896;DHT22;4484;48.928;10.066;2022-10-26T03:52:46;11.10;99.90
8896;DHT22;4484;48.928;10.066;2022-10-26T03:55:14;11.10;99.90
8896;DHT22;4484;48.928;10.066;2022-10-26T03:57:42;11.10;99.90
8896;DHT22;4484;48.928;10.066;2022-10-26T04:00:11;11.00;99.90
8896;DHT22;4484;48.928;10.066;2022-10-26T04:02:38;11.00;99.90
8896;DHT22;4484;48.928;10.066;2022-10-26T04:05:05;11.00;99.90
8896;DHT22;4484;48.928;10.066;2022-10-26T04:07:32;10.90;99.90
8896;DHT22;4484;48.928;10.066;2022-10-26T04:10:00;10.90;99.90
8896;DHT22;4484;48.928;10.066;2022-10-26T04:12:27;10.90;99.90
8896;DHT22;4484;48.928;10.066;2022-10-26T04:14:53;10.90;99.90
8896;DHT22;4484;48.928;10.066;2022-10-26T04:17:23;10.90;99.90
8896;DHT22;4484;48.928;10.066;2022-10-26T04:19:50;11.00;99.90
8896;DHT22;4484;48.928;10.066;2022-10-26T04:22:17;11.00;99.90
8896;DHT22;4484;48.928;10.066;2022-10-26T04:24:44;11.10;99.90
8896;DHT22;4484;48.928;10.066;2022-10-26T04:27:11;11.20;99.90
8896;DHT22;4484;48.928;10.066;2022-10-26T04:29:37;11.20;99.90
8896;DHT22;4484;48.928;10.066;2022-10-26T04:32:04;11.30;99.90
8896;DHT22;4484;48.928;10.066;2022-10-26T04:34:32;11.40;99.90
8896;DHT22;4484;48.928;10.066;2022-10-26T04:36:59;11.40;99.90
8896;DHT22;4484;48.928;10.066;2022-10-26T04:39:26;11.50;99.90
8896;DHT22;4484;48.928;10.066;2022-10-26T04:41:53;11.50;99.90
8896;DHT22;4484;48.928;10.066;2022-10-26T04:44:20;11.50;99.90
8896;DHT22;4484;48.928;10.066;2022-10-26T04:46:47;11.60;99.90
8896;DHT22;4484;48.928;10.066;2022-10-26T04:49:14;11.60;99.90
8896;DHT22;4484;48.928;10.066;2022-10-26T04:51:41;11.60;99.90
8896;DHT22;4484;48.928;10.066;2022-10-26T04:54:08;11.60;99.90
8896;DHT22;4484;48.928;10.066;2022-10-26T04:56:35;11.60;99.90
8896;DHT22;4484;48.928;10.066;2022-10-26T04:59:02;11.60;99.90
8896;DHT22;4484;48.928;10.066;2022-10-26T05:01:30;11.60;99.90
8896;DHT22;4484;48.928;10.066;2022-10-26T05:03:57;11.50;99.90
8896;DHT22;4484;48.928;10.066;2022-10-26T05:06:24;11.50;99.90
8896;DHT22;4484;48.928;10.066;2022-10-26T05:08:51;11.50;99.90
8896;DHT22;4484;48.928;10.066;2022-10-26T05:11:18;11.50;99.90
8896;DHT22;4484;48.928;10.066;2022-10-26T05:13:46;11.50;99.90
8896;DHT22;4484;48.928;10.066;2022-10-26T05:16:14;11.50;99.90
8896;DHT22;4484;48.928;10.066;2022-10-26T05:18:41;11.50;99.90
8896;DHT22;4484;48.928;10.066;2022-10-26T05:21:08;11.50;99.90
8896;DHT22;4484;48.928;10.066;2022-10-26T05:23:35;11.60;99.90
8896;DHT22;4484;48.928;10.066;2022-10-26T05:26:03;11.50;99.90
8896;DHT22;4484;48.928;10.066;2022-10-26T05:28:30;11.50;99.90
8896;DHT22;4484;48.928;10.066;2022-10-26T05:30:57;11.50;99.90
8896;DHT22;4484;48.928;10.066;2022-10-26T05:33:24;11.50;99.90
8896;DHT22;4484;48.928;10.066;2022-10-26T05:35:54;11.50;99.90
8896;DHT22;4484;48.928;10.066;2022-10-26T05:38:21;11.60;99.90
8896;DHT22;4484;48.928;10.066;2022-10-26T05:40:50;11.60;99.90
8896;DHT22;4484;48.928;10.066;2022-10-26T05:43:18;11.60;99.90
8896;DHT22;4484;48.928;10.066;2022-10-26T05:45:46;11.60;99.90
8896;DHT22;4484;48.928;10.066;2022-10-26T05:48:13;11.60;99.90
8896;DHT22;4484;48.928;10.066;2022-10-26T05:50:40;11.60;99.90
8896;DHT22;4484;48.928;10.066;2022-10-26T05:53:07;11.60;99.90
8896;DHT22;4484;48.928;10.066;2022-10-26T05:55:34;11.60;99.90
8896;DHT22;4484;48.928;10.066;2022-10-26T05:58:01;11.60;99.90
8896;DHT22;4484;48.928;10.066;2022-10-26T06:00:28;11.60;99.90
8896;DHT22;4484;48.928;10.066;2022-10-26T06:05:53;11.70;99.90
8896;DHT22;4484;48.928;10.066;2022-10-26T06:08:23;11.70;99.90
8896;DHT22;4484;48.928;10.066;2022-10-26T06:10:51;11.70;99.90
8896;DHT22;4484;48.928;10.066;2022-10-26T06:13:20;11.80;99.90
8896;DHT22;4484;48.928;10.066;2022-10-26T06:24:47;11.90;99.90
8896;DHT22;4484;48.928;10.066;2022-10-26T06:30:20;11.90;99.90
8896;DHT22;4484;48.928;10.066;2022-10-26T06:32:49;11.90;99.90
8896;DHT22;4484;48.928;10.066;2022-10-26T06:38:12;11.90;99.90
8896;DHT22;4484;48.928;10.066;2022-10-26T06:40:43;11.90;99.90
8896;DHT22;4484;48.928;10.066;2022-10-26T06:43:17;11.90;99.90
8896;DHT22;4484;48.928;10.066;2022-10-26T06:45:47;12.00;99.90
8896;DHT22;4484;48.928;10.066;2022-10-26T06:48:21;12.00;99.90
8896;DHT22;4484;48.928;10.066;2022-10-26T06:50:52;12.00;99.90
8896;DHT22;4484;48.928;10.066;2022-10-26T06:55:56;12.00;99.90
8896;DHT22;4484;48.928;10.066;2022-10-26T06:58:28;12.00;99.90
8896;DHT22;4484;48.928;10.066;2022-10-26T07:00:56;12.00;99.90
8896;DHT22;4484;48.928;10.066;2022-10-26T07:03:24;12.00;99.90
8896;DHT22;4484;48.928;10.066;2022-10-26T07:05:50;12.00;99.90
8896;DHT22;4484;48.928;10.066;2022-10-26T07:08:18;12.10;99.90
8896;DHT22;4484;48.928;10.066;2022-10-26T07:10:45;12.00;99.90
8896;DHT22;4484;48.928;10.066;2022-10-26T07:13:13;12.00;99.90
8896;DHT22;4484;48.928;10.066;2022-10-26T07:15:40;12.00;99.90
8896;DHT22;4484;48.928;10.066;2022-10-26T07:18:08;12.00;99.90
8896;DHT22;4484;48.928;10.066;2022-10-26T07:20:39;12.00;99.90
8896;DHT22;4484;48.928;10.066;2022-10-26T07:23:08;12.10;99.90
8896;DHT22;4484;48.928;10.066;2022-10-26T07:25:38;12.10;99.90
8896;DHT22;4484;48.928;10.066;2022-10-26T07:28:08;12.10;99.90
8896;DHT22;4484;48.928;10.066;2022-10-26T07:30:37;12.10;99.90
8896;DHT22;4484;48.928;10.066;2022-10-26T07:33:10;12.20;99.90
8896;DHT22;4484;48.928;10.066;2022-10-26T07:35:37;12.20;99.90
8896;DHT22;4484;48.928;10.066;2022-10-26T07:38:05;12.20;99.90
8896;DHT22;4484;48.928;10.066;2022-10-26T07:40:32;12.30;99.90
8896;DHT22;4484;48.928;10.066;2022-10-26T07:42:59;12.30;99.90
8896;DHT22;4484;48.928;10.066;2022-10-26T07:45:28;12.30;99.90
8896;DHT22;4484;48.928;10.066;2022-10-26T07:47:56;12.30;99.90
8896;DHT22;4484;48.928;10.066;2022-10-26T07:50:23;12.40;99.90
8896;DHT22;4484;48.928;10.066;2022-10-26T07:52:50;12.40;99.90
8896;DHT22;4484;48.928;10.066;2022-10-26T07:55:17;12.50;99.90
8896;DHT22;4484;48.928;10.066;2022-10-26T07:57:44;12.60;99.90
8896;DHT22;4484;48.928;10.066;2022-10-26T08:00:19;12.60;99.90
8896;DHT22;4484;48.928;10.066;2022-10-26T08:02:46;12.70;99.90
8896;DHT22;4484;48.928;10.066;2022-10-26T08:05:13;12.80;99.90
8896;DHT22;4484;48.928;10.066;2022-10-26T08:07:44;12.90;99.90
8896;DHT22;4484;48.928;10.066;2022-10-26T08:10:12;13.00;99.90
8896;DHT22;4484;48.928;10.066;2022-10-26T08:12:40;13.10;99.90
8896;DHT22;4484;48.928;10.066;2022-10-26T08:15:08;13.20;99.90
8896;DHT22;4484;48.928;10.066;2022-10-26T08:17:36;13.20;99.90
8896;DHT22;4484;48.928;10.066;2022-10-26T08:20:03;13.20;99.90
8896;DHT22;4484;48.928;10.066;2022-10-26T08:22:30;13.30;99.90
8896;DHT22;4484;48.928;10.066;2022-10-26T08:24:57;13.30;99.90
8896;DHT22;4484;48.928;10.066;2022-10-26T08:27:36;13.40;99.90
8896;DHT22;4484;48.928;10.066;2022-10-26T08:30:03;13.40;99.90
8896;DHT22;4484;48.928;10.066;2022-10-26T08:32:30;13.50;99.90
8896;DHT22;4484;48.928;10.066;2022-10-26T08:34:57;13.60;99.90
8896;DHT22;4484;48.928;10.066;2022-10-26T08:37:24;13.70;99.90
8896;DHT22;4484;48.928;10.066;2022-10-26T08:39:52;13.80;99.90
8896;DHT22;4484;48.928;10.066;2022-10-26T08:42:27;13.80;99.90
8896;DHT22;4484;48.928;10.066;2022-10-26T08:45:03;13.90;99.90
8896;DHT22;4484;48.928;10.066;2022-10-26T08:47:39;14.00;99.90
8896;DHT22;4484;48.928;10.066;2022-10-26T08:50:24;14.00;99.90
8896;DHT22;4484;48.928;10.066;2022-10-26T08:55:46;14.10;99.90
8896;DHT22;4484;48.928;10.066;2022-10-26T08:58:19;14.20;99.90
8896;DHT22;4484;48.928;10.066;2022-10-26T09:00:49;14.20;99.90
8896;DHT22;4484;48.928;10.066;2022-10-26T09:03:17;14.30;99.90
8896;DHT22;4484;48.928;10.066;2022-10-26T09:08:30;14.50;99.90
8896;DHT22;4484;48.928;10.066;2022-10-26T09:17:10;14.90;99.90
8896;DHT22;4484;48.928;10.066;2022-10-26T09:19:57;15.00;99.90
8896;DHT22;4484;48.928;10.066;2022-10-26T09:22:53;15.00;99.90
8896;DHT22;4484;48.928;10.066;2022-10-26T09:25:22;15.10;99.90
8896;DHT22;4484;48.928;10.066;2022-10-26T09:27:58;15.20;99.90
8896;DHT22;4484;48.928;10.066;2022-10-26T09:30:27;15.30;99.90
8896;DHT22;4484;48.928;10.066;2022-10-26T09:33:11;15.40;99.90
8896;DHT22;4484;48.928;10.066;2022-10-26T09:38:28;15.70;99.90
8896;DHT22;4484;48.928;10.066;2022-10-26T09:41:21;15.80;99.90
8896;DHT22;4484;48.928;10.066;2022-10-26T09:46:20;16.00;99.90
8896;DHT22;4484;48.928;10.066;2022-10-26T09:48:51;16.00;99.90
8896;DHT22;4484;48.928;10.066;2022-10-26T09:51:19;16.10;99.90
8896;DHT22;4484;48.928;10.066;2022-10-26T09:53:47;16.20;99.90
8896;DHT22;4484;48.928;10.066;2022-10-26T09:56:14;16.30;99.90
8896;DHT22;4484;48.928;10.066;2022-10-26T09:58:45;16.40;99.90
8896;DHT22;4484;48.928;10.066;2022-10-26T10:01:34;16.40;99.90
8896;DHT22;4484;48.928;10.066;2022-10-26T10:06:50;16.40;99.90
8896;DHT22;4484;48.928;10.066;2022-10-26T10:09:19;16.40;99.90
8896;DHT22;4484;48.928;10.066;2022-10-26T10:11:53;16.40;99.90
8896;DHT22;4484;48.928;10.066;2022-10-26T10:14:26;16.40;99.90
8896;DHT22;4484;48.928;10.066;2022-10-26T10:17:03;16.40;99.90
8896;DHT22;4484;48.928;10.066;2022-10-26T10:19:33;16.50;99.90
8896;DHT22;4484;48.928;10.066;2022-10-26T10:22:10;16.50;99.90
8896;DHT22;4484;48.928;10.066;2022-10-26T10:24:59;16.50;99.90
8896;DHT22;4484;48.928;10.066;2022-10-26T10:27:27;16.50;99.90
8896;DHT22;4484;48.928;10.066;2022-10-26T10:29:56;16.60;99.90
8896;DHT22;4484;48.928;10.066;2022-10-26T10:32:30;16.70;99.90
8896;DHT22;4484;48.928;10.066;2022-10-26T10:35:23;16.80;99.90
8896;DHT22;4484;48.928;10.066;2022-10-26T10:37:51;16.90;99.90
8896;DHT22;4484;48.928;10.066;2022-10-26T10:40:24;17.00;99.90
8896;DHT22;4484;48.928;10.066;2022-10-26T10:42:53;17.20;99.90
8896;DHT22;4484;48.928;10.066;2022-10-26T10:45:26;17.50;99.90
8896;DHT22;4484;48.928;10.066;2022-10-26T10:48:15;17.60;99.90
8896;DHT22;4484;48.928;10.066;2022-10-26T10:59:32;19.10;99.90
8896;DHT22;4484;48.928;10.066;2022-10-26T11:01:46;19.60;99.90
8896;DHT22;4484;48.928;10.066;2022-10-26T11:07:17;21.20;99.90
8896;DHT22;4484;48.928;10.066;2022-10-26T11:09:48;21.80;99.90
8896;DHT22;4484;48.928;10.066;2022-10-26T11:12:35;21.90;99.90
8896;DHT22;4484;48.928;10.066;2022-10-26T11:15:13;21.90;99.90
8896;DHT22;4484;48.928;10.066;2022-10-26T11:17:59;22.10;99.90
8896;DHT22;4484;48.928;10.066;2022-10-26T11:20:31;22.70;99.90
8896;DHT22;4484;48.928;10.066;2022-10-26T11:23:41;23.50;99.90
8896;DHT22;4484;48.928;10.066;2022-10-26T11:29:02;25.10;99.90
8896;DHT22;4484;48.928;10.066;2022-10-26T11:31:36;25.50;99.90
8896;DHT22;4484;48.928;10.066;2022-10-26T11:34:33;25.90;99.90
8896;DHT22;4484;48.928;10.066;2022-10-26T11:40:24;25.80;99.90
8896;DHT22;4484;48.928;10.066;2022-10-26T11:54:38;26.20;99.90
8896;DHT22;4484;48.928;10.066;2022-10-26T11:57:06;26.10;99.90
8896;DHT22;4484;48.928;10.066;2022-10-26T11:59:38;26.00;99.90
8896;DHT22;4484;48.928;10.066;2022-10-26T12:02:14;25.60;99.90
8896;DHT22;4484;48.928;10.066;2022-10-26T12:04:49;25.20;99.90
8896;DHT22;4484;48.928;10.066;2022-10-26T12:07:25;25.00;99.90
8896;DHT22;4484;48.928;10.066;2022-10-26T12:09:54;24.90;99.90
8896;DHT22;4484;48.928;10.066;2022-10-26T12:20:47;23.10;99.90
8896;DHT22;4484;48.928;10.066;2022-10-26T12:23:17;22.70;99.90
8896;DHT22;4484;48.928;10.066;2022-10-26T12:34:03;23.40;99.90
8896;DHT22;4484;48.928;10.066;2022-10-26T12:39:39;23.70;99.90
8896;DHT22;4484;48.928;10.066;2022-10-26T12:47:08;23.80;99.90
8896;DHT22;4484;48.928;10.066;2022-10-26T13:04:03;22.30;99.90
8896;DHT22;4484;48.928;10.066;2022-10-26T13:09:22;22.70;99.90
8896;DHT22;4484;48.928;10.066;2022-10-26T13:11:52;22.60;99.90
8896;DHT22;4484;48.928;10.066;2022-10-26T13:14:24;22.40;99.90
8896;DHT22;4484;48.928;10.066;2022-10-26T13:16:51;22.30;99.90
8896;DHT22;4484;48.928;10.066;2022-10-26T13:19:31;22.00;99.90
8896;DHT22;4484;48.928;10.066;2022-10-26T13:21:59;21.80;99.90
8896;DHT22;4484;48.928;10.066;2022-10-26T13:24:29;21.70;99.90
8896;DHT22;4484;48.928;10.066;2022-10-26T13:32:33;21.30;99.90
8896;DHT22;4484;48.928;10.066;2022-10-26T13:35:01;21.10;99.90
8896;DHT22;4484;48.928;10.066;2022-10-26T13:37:31;21.00;99.90
8896;DHT22;4484;48.928;10.066;2022-10-26T13:39:59;20.80;99.90
8896;DHT22;4484;48.928;10.066;2022-10-26T13:43:01;20.60;99.90
8896;DHT22;4484;48.928;10.066;2022-10-26T13:45:45;20.50;99.90
8896;DHT22;4484;48.928;10.066;2022-10-26T13:48:21;20.40;99.90
8896;DHT22;4484;48.928;10.066;2022-10-26T13:50:56;20.30;99.90
8896;DHT22;4484;48.928;10.066;2022-10-26T13:53:44;20.40;99.90
8896;DHT22;4484;48.928;10.066;2022-10-26T14:01:30;20.50;99.90
8896;DHT22;4484;48.928;10.066;2022-10-26T14:03:57;20.50;99.90
8896;DHT22;4484;48.928;10.066;2022-10-26T14:06:35;20.40;99.90
8896;DHT22;4484;48.928;10.066;2022-10-26T14:09:10;20.30;99.90
8896;DHT22;4484;48.928;10.066;2022-10-26T14:11:48;20.20;99.90
8896;DHT22;4484;48.928;10.066;2022-10-26T14:14:20;20.20;99.90
8896;DHT22;4484;48.928;10.066;2022-10-26T14:16:49;20.20;99.90
8896;DHT22;4484;48.928;10.066;2022-10-26T14:19:36;20.20;99.90
8896;DHT22;4484;48.928;10.066;2022-10-26T14:22:06;20.20;99.90
8896;DHT22;4484;48.928;10.066;2022-10-26T14:24:35;20.10;99.90
8896;DHT22;4484;48.928;10.066;2022-10-26T14:27:19;20.00;99.90
8896;DHT22;4484;48.928;10.066;2022-10-26T14:29:47;20.00;99.90
8896;DHT22;4484;48.928;10.066;2022-10-26T14:32:34;20.00;99.90
8896;DHT22;4484;48.928;10.066;2022-10-26T14:35:02;20.00;99.90
8896;DHT22;4484;48.928;10.066;2022-10-26T14:38:03;19.90;99.90
8896;DHT22;4484;48.928;10.066;2022-10-26T14:40:25;19.90;99.90
8896;DHT22;4484;48.928;10.066;2022-10-26T14:42:55;19.70;99.90
8896;DHT22;4484;48.928;10.066;2022-10-26T14:45:26;19.60;99.90
8896;DHT22;4484;48.928;10.066;2022-10-26T14:51:24;19.70;99.90
8896;DHT22;4484;48.928;10.066;2022-10-26T14:54:02;19.80;99.90
8896;DHT22;4484;48.928;10.066;2022-10-26T14:56:38;20.00;99.90
8896;DHT22;4484;48.928;10.066;2022-10-26T15:01:54;20.20;99.90
8896;DHT22;4484;48.928;10.066;2022-10-26T15:04:39;20.20;99.90
8896;DHT22;4484;48.928;10.066;2022-10-26T15:12:26;20.00;99.90
8896;DHT22;4484;48.928;10.066;2022-10-26T15:14:54;19.90;99.90
8896;DHT22;4484;48.928;10.066;2022-10-26T15:17:36;19.70;99.90
8896;DHT22;4484;48.928;10.066;2022-10-26T15:20:06;19.50;99.90
8896;DHT22;4484;48.928;10.066;2022-10-26T15:22:38;19.40;99.90
8896;DHT22;4484;48.928;10.066;2022-10-26T15:25:06;19.30;99.90
8896;DHT22;4484;48.928;10.066;2022-10-26T15:27:33;19.20;99.90
8896;DHT22;4484;48.928;10.066;2022-10-26T15:30:26;19.00;99.90
8896;DHT22;4484;48.928;10.066;2022-10-26T15:32:54;18.90;99.90
8896;DHT22;4484;48.928;10.066;2022-10-26T15:35:28;18.80;99.90
8896;DHT22;4484;48.928;10.066;2022-10-26T15:37:56;18.70;99.90
8896;DHT22;4484;48.928;10.066;2022-10-26T15:40:24;18.60;99.90
8896;DHT22;4484;48.928;10.066;2022-10-26T15:42:53;18.50;99.90
8896;DHT22;4484;48.928;10.066;2022-10-26T15:45:31;18.40;99.90
8896;DHT22;4484;48.928;10.066;2022-10-26T15:48:21;18.20;99.90
8896;DHT22;4484;48.928;10.066;2022-10-26T15:50:49;18.10;99.90
8896;DHT22;4484;48.928;10.066;2022-10-26T15:53:19;18.00;99.90
8896;DHT22;4484;48.928;10.066;2022-10-26T15:55:47;17.90;99.90
8896;DHT22;4484;48.928;10.066;2022-10-26T15:58:15;17.80;99.90
8896;DHT22;4484;48.928;10.066;2022-10-26T16:00:43;17.70;99.90
8896;DHT22;4484;48.928;10.066;2022-10-26T16:03:13;17.60;99.90
8896;DHT22;4484;48.928;10.066;2022-10-26T16:05:41;17.50;99.90
8896;DHT22;4484;48.928;10.066;2022-10-26T16:08:11;17.40;99.90
8896;DHT22;4484;48.928;10.066;2022-10-26T16:10:44;17.30;99.90
8896;DHT22;4484;48.928;10.066;2022-10-26T16:13:12;17.20;99.90
8896;DHT22;4484;48.928;10.066;2022-10-26T16:15:39;17.10;99.90
8896;DHT22;4484;48.928;10.066;2022-10-26T16:18:07;16.90;99.90
8896;DHT22;4484;48.928;10.066;2022-10-26T16:20:34;16.80;99.90
8896;DHT22;4484;48.928;10.066;2022-10-26T16:23:02;16.70;99.90
8896;DHT22;4484;48.928;10.066;2022-10-26T16:25:34;16.50;99.90
8896;DHT22;4484;48.928;10.066;2022-10-26T16:28:05;16.40;99.90
8896;DHT22;4484;48.928;10.066;2022-10-26T16:30:37;16.30;99.90
8896;DHT22;4484;48.928;10.066;2022-10-26T16:33:05;16.10;99.90
8896;DHT22;4484;48.928;10.066;2022-10-26T16:35:32;16.00;99.90
8896;DHT22;4484;48.928;10.066;2022-10-26T16:38:00;15.90;99.90
8896;DHT22;4484;48.928;10.066;2022-10-26T16:40:29;15.70;99.90
8896;DHT22;4484;48.928;10.066;2022-10-26T16:42:57;15.60;99.90
8896;DHT22;4484;48.928;10.066;2022-10-26T16:45:24;15.50;99.90
8896;DHT22;4484;48.928;10.066;2022-10-26T16:47:57;15.30;99.90
8896;DHT22;4484;48.928;10.066;2022-10-26T16:50:24;15.20;99.90
8896;DHT22;4484;48.928;10.066;2022-10-26T16:52:51;15.10;99.90
8896;DHT22;4484;48.928;10.066;2022-10-26T16:55:19;15.00;99.90
8896;DHT22;4484;48.928;10.066;2022-10-26T16:57:50;14.90;99.90
8896;DHT22;4484;48.928;10.066;2022-10-26T17:00:17;14.80;99.90
8896;DHT22;4484;48.928;10.066;2022-10-26T17:02:44;14.60;99.90
8896;DHT22;4484;48.928;10.066;2022-10-26T17:05:11;14.60;99.90
8896;DHT22;4484;48.928;10.066;2022-10-26T17:07:38;14.50;99.90
8896;DHT22;4484;48.928;10.066;2022-10-26T17:10:05;14.40;99.90
8896;DHT22;4484;48.928;10.066;2022-10-26T17:12:32;14.20;99.90
8896;DHT22;4484;48.928;10.066;2022-10-26T17:14:59;14.20;99.90
8896;DHT22;4484;48.928;10.066;2022-10-26T17:17:27;14.10;99.90
8896;DHT22;4484;48.928;10.066;2022-10-26T17:19:54;14.00;99.90
8896;DHT22;4484;48.928;10.066;2022-10-26T17:22:21;13.90;99.90
8896;DHT22;4484;48.928;10.066;2022-10-26T17:24:48;13.80;99.90
8896;DHT22;4484;48.928;10.066;2022-10-26T17:27:15;13.70;99.90
8896;DHT22;4484;48.928;10.066;2022-10-26T17:29:43;13.60;99.90
8896;DHT22;4484;48.928;10.066;2022-10-26T17:32:09;13.60;99.90
8896;DHT22;4484;48.928;10.066;2022-10-26T17:34:36;13.50;99.90
8896;DHT22;4484;48.928;10.066;2022-10-26T17:37:04;13.50;99.90
8896;DHT22;4484;48.928;10.066;2022-10-26T17:39:32;13.40;99.90
8896;DHT22;4484;48.928;10.066;2022-10-26T17:42:00;13.20;99.90
8896;DHT22;4484;48.928;10.066;2022-10-26T17:44:27;13.20;99.90
8896;DHT22;4484;48.928;10.066;2022-10-26T17:46:54;13.20;99.90
8896;DHT22;4484;48.928;10.066;2022-10-26T17:49:21;13.10;99.90
8896;DHT22;4484;48.928;10.066;2022-10-26T17:51:54;13.00;99.90
8896;DHT22;4484;48.928;10.066;2022-10-26T17:54:21;12.90;99.90
8896;DHT22;4484;48.928;10.066;2022-10-26T17:56:48;12.80;99.90
8896;DHT22;4484;48.928;10.066;2022-10-26T17:59:15;12.80;99.90
8896;DHT22;4484;48.928;10.066;2022-10-26T18:01:44;12.70;99.90
8896;DHT22;4484;48.928;10.066;2022-10-26T18:04:11;12.60;99.90
8896;DHT22;4484;48.928;10.066;2022-10-26T18:06:38;12.60;99.90
8896;DHT22;4484;48.928;10.066;2022-10-26T18:09:05;12.50;99.90
8896;DHT22;4484;48.928;10.066;2022-10-26T18:11:32;12.50;99.90
8896;DHT22;4484;48.928;10.066;2022-10-26T18:14:00;12.40;99.90
8896;DHT22;4484;48.928;10.066;2022-10-26T18:16:27;12.40;99.90
8896;DHT22;4484;48.928;10.066;2022-10-26T18:19:05;12.30;99.90
8896;DHT22;4484;48.928;10.066;2022-10-26T18:21:34;12.40;99.90
8896;DHT22;4484;48.928;10.066;2022-10-26T18:24:04;12.30;99.90
8896;DHT22;4484;48.928;10.066;2022-10-26T18:26:31;12.20;99.90
8896;DHT22;4484;48.928;10.066;2022-10-26T18:28:59;12.10;99.90
8896;DHT22;4484;48.928;10.066;2022-10-26T18:31:28;12.10;99.90
8896;DHT22;4484;48.928;10.066;2022-10-26T18:34:00;12.00;99.90
8896;DHT22;4484;48.928;10.066;2022-10-26T18:36:28;12.00;99.90
8896;DHT22;4484;48.928;10.066;2022-10-26T18:38:55;11.90;99.90
8896;DHT22;4484;48.928;10.066;2022-10-26T18:41:23;11.90;99.90
8896;DHT22;4484;48.928;10.066;2022-10-26T18:43:53;11.80;99.90
8896;DHT22;4484;48.928;10.066;2022-10-26T18:46:23;11.80;99.90
8896;DHT22;4484;48.928;10.066;2022-10-26T18:48:50;11.70;99.90
8896;DHT22;4484;48.928;10.066;2022-10-26T18:51:27;11.70;99.90
8896;DHT22;4484;48.928;10.066;2022-10-26T18:53:56;11.60;99.90